sensor_id;sensor_type;location;lat;lon;timestamp;temperature;humidity
71175;DHT22;58876;51.994;4.472;2024-03-02T00:00:10;7.42;86.90
71175;DHT22;58876;51.994;4.472;2024-03-02T00:02:49;7.38;86.77
71175;DHT22;58876;51.994;4.472;2024-03-02T00:05:19;7.34;87.16
71175;DHT22;58876;51.994;4.472;2024-03-02T00:07:55;7.38;87.12
71175;DHT22;58876;51.994;4.472;2024-03-02T00:10:26;7.41;87.17
71175;DHT22;58876;51.994;4.472;2024-03-02T00:12:58;7.46;86.81
71175;DHT22;58876;51.994;4.472;2024-03-02T00:18:04;7.45;86.43
71175;DHT22;58876;51.994;4.472;2024-03-02T00:20:30;7.53;86.62
71175;DHT22;58876;51.994;4.472;2024-03-02T00:23:05;7.56;86.53
71175;DHT22;58876;51.994;4.472;2024-03-02T00:25:40;7.44;86.63
71175;DHT22;58876;51.994;4.472;2024-03-02T00:30:51;7.38;86.64
71175;DHT22;58876;51.994;4.472;2024-03-02T00:33:19;7.34;86.07
71175;DHT22;58876;51.994;4.472;2024-03-02T00:35:45;7.28;86.46
71175;DHT22;58876;51.994;4.472;2024-03-02T00:38:12;7.39;86.41
71175;DHT22;58876;51.994;4.472;2024-03-02T00:40:39;7.42;85.94
71175;DHT22;58876;51.994;4.472;2024-03-02T00:43:05;7.44;85.98
71175;DHT22;58876;51.994;4.472;2024-03-02T00:45:30;7.46;85.69
71175;DHT22;58876;51.994;4.472;2024-03-02T00:47:57;7.53;85.71
71175;DHT22;58876;51.994;4.472;2024-03-02T00:50:22;7.49;85.62
71175;DHT22;58876;51.994;4.472;2024-03-02T00:52:48;7.49;85.62
71175;DHT22;58876;51.994;4.472;2024-03-02T00:55:14;7.45;85.20
71175;DHT22;58876;51.994;4.472;2024-03-02T00:57:40;7.51;85.33
71175;DHT22;58876;51.994;4.472;2024-03-02T01:00:06;7.26;85.06
71175;DHT22;58876;51.994;4.472;2024-03-02T01:02:35;7.31;85.35
71175;DHT22;58876;51.994;4.472;2024-03-02T01:05:00;7.42;85.49
71175;DHT22;58876;51.994;4.472;2024-03-02T01:07:26;7.42;85.34
71175;DHT22;58876;51.994;4.472;2024-03-02T01:09:51;7.29;85.21
71175;DHT22;58876;51.994;4.472;2024-03-02T01:12:17;7.32;85.22
71175;DHT22;58876;51.994;4.472;2024-03-02T01:14:42;7.35;85.11
71175;DHT22;58876;51.994;4.472;2024-03-02T01:17:08;7.32;84.70
71175;DHT22;58876;51.994;4.472;2024-03-02T01:19:33;7.29;85.07
71175;DHT22;58876;51.994;4.472;2024-03-02T01:21:59;7.28;84.83
71175;DHT22;58876;51.994;4.472;2024-03-02T01:24:24;7.28;84.66
71175;DHT22;58876;51.994;4.472;2024-03-02T01:26:49;7.21;85.10
71175;DHT22;58876;51.994;4.472;2024-03-02T01:29:15;7.19;84.91
71175;DHT22;58876;51.994;4.472;2024-03-02T01:31:41;7.24;84.46
71175;DHT22;58876;51.994;4.472;2024-03-02T01:34:08;7.31;84.83
71175;DHT22;58876;51.994;4.472;2024-03-02T01:36:33;7.34;84.62
71175;DHT22;58876;51.994;4.472;2024-03-02T01:38:59;7.34;84.13
71175;DHT22;58876;51.994;4.472;2024-03-02T01:41:25;7.36;84.50
71175;DHT22;58876;51.994;4.472;2024-03-02T01:43:50;7.38;84.09
71175;DHT22;58876;51.994;4.472;2024-03-02T01:46:16;7.36;83.92
71175;DHT22;58876;51.994;4.472;2024-03-02T01:48:41;7.26;84.28
71175;DHT22;58876;51.994;4.472;2024-03-02T01:51:07;7.31;84.45
71175;DHT22;58876;51.994;4.472;2024-03-02T01:53:34;7.19;84.46
71175;DHT22;58876;51.994;4.472;2024-03-02T01:55:59;7.25;84.74
71175;DHT22;58876;51.994;4.472;2024-03-02T01:58:26;7.24;84.35
71175;DHT22;58876;51.994;4.472;2024-03-02T02:00:52;7.24;84.41
71175;DHT22;58876;51.994;4.472;2024-03-02T02:03:18;7.31;84.54
71175;DHT22;58876;51.994;4.472;2024-03-02T02:05:43;7.45;84.62
71175;DHT22;58876;51.994;4.472;2024-03-02T02:08:09;7.39;84.65
71175;DHT22;58876;51.994;4.472;2024-03-02T02:10:34;7.34;84.47
71175;DHT22;58876;51.994;4.472;2024-03-02T02:13:00;7.32;84.46
71175;DHT22;58876;51.994;4.472;2024-03-02T02:15:27;7.39;84.24
71175;DHT22;58876;51.994;4.472;2024-03-02T02:17:53;7.31;84.73
71175;DHT22;58876;51.994;4.472;2024-03-02T02:20:19;7.41;84.43
71175;DHT22;58876;51.994;4.472;2024-03-02T02:25:27;7.32;84.45
71175;DHT22;58876;51.994;4.472;2024-03-02T02:27:53;7.49;84.38
71175;DHT22;58876;51.994;4.472;2024-03-02T02:30:27;7.45;84.32
71175;DHT22;58876;51.994;4.472;2024-03-02T02:32:53;7.42;83.97
71175;DHT22;58876;51.994;4.472;2024-03-02T02:35:19;7.35;83.79
71175;DHT22;58876;51.994;4.472;2024-03-02T02:37:46;7.46;83.80
71175;DHT22;58876;51.994;4.472;2024-03-02T02:40:13;7.48;83.26
71175;DHT22;58876;51.994;4.472;2024-03-02T02:42:39;7.46;83.41
71175;DHT22;58876;51.994;4.472;2024-03-02T02:45:05;7.51;83.32
71175;DHT22;58876;51.994;4.472;2024-03-02T02:47:31;7.49;83.10
71175;DHT22;58876;51.994;4.472;2024-03-02T02:50:01;7.42;83.59
71175;DHT22;58876;51.994;4.472;2024-03-02T02:52:35;7.53;83.15
71175;DHT22;58876;51.994;4.472;2024-03-02T02:55:04;7.56;83.00
71175;DHT22;58876;51.994;4.472;2024-03-02T02:57:30;7.55;82.71
71175;DHT22;58876;51.994;4.472;2024-03-02T03:00:01;7.41;82.81
71175;DHT22;58876;51.994;4.472;2024-03-02T03:02:29;7.39;83.12
71175;DHT22;58876;51.994;4.472;2024-03-02T03:04:55;7.44;83.34
71175;DHT22;58876;51.994;4.472;2024-03-02T03:07:22;7.53;83.23
71175;DHT22;58876;51.994;4.472;2024-03-02T03:09:48;7.55;83.23
71175;DHT22;58876;51.994;4.472;2024-03-02T03:12:13;7.59;82.85
71175;DHT22;58876;51.994;4.472;2024-03-02T03:14:40;7.45;83.02
71175;DHT22;58876;51.994;4.472;2024-03-02T03:17:06;7.46;83.15
71175;DHT22;58876;51.994;4.472;2024-03-02T03:19:33;7.49;83.34
71175;DHT22;58876;51.994;4.472;2024-03-02T03:21:59;7.76;82.89
71175;DHT22;58876;51.994;4.472;2024-03-02T03:24:24;7.80;82.47
71175;DHT22;58876;51.994;4.472;2024-03-02T03:26:50;7.73;82.09
71175;DHT22;58876;51.994;4.472;2024-03-02T03:29:15;7.76;81.88
71175;DHT22;58876;51.994;4.472;2024-03-02T03:31:40;7.63;82.24
71175;DHT22;58876;51.994;4.472;2024-03-02T03:34:06;7.66;82.50
71175;DHT22;58876;51.994;4.472;2024-03-02T03:36:31;7.74;82.18
71175;DHT22;58876;51.994;4.472;2024-03-02T03:38:57;7.72;82.11
71175;DHT22;58876;51.994;4.472;2024-03-02T03:41:23;7.76;82.03
71175;DHT22;58876;51.994;4.472;2024-03-02T03:43:48;7.79;81.71
71175;DHT22;58876;51.994;4.472;2024-03-02T03:46:13;7.67;81.42
71175;DHT22;58876;51.994;4.472;2024-03-02T03:48:39;7.80;81.50
71175;DHT22;58876;51.994;4.472;2024-03-02T03:51:04;7.72;80.95
71175;DHT22;58876;51.994;4.472;2024-03-02T03:53:30;7.72;81.30
71175;DHT22;58876;51.994;4.472;2024-03-02T03:55:55;7.86;81.04
71175;DHT22;58876;51.994;4.472;2024-03-02T03:58:21;7.98;80.60
71175;DHT22;58876;51.994;4.472;2024-03-02T04:00:46;7.87;80.74
71175;DHT22;58876;51.994;4.472;2024-03-02T04:03:12;7.94;80.49
71175;DHT22;58876;51.994;4.472;2024-03-02T04:05:38;7.89;80.60
71175;DHT22;58876;51.994;4.472;2024-03-02T04:08:04;7.77;80.93
71175;DHT22;58876;51.994;4.472;2024-03-02T04:10:29;7.82;80.93
71175;DHT22;58876;51.994;4.472;2024-03-02T04:12:55;7.74;80.86
71175;DHT22;58876;51.994;4.472;2024-03-02T04:15:21;7.55;81.63
71175;DHT22;58876;51.994;4.472;2024-03-02T04:17:48;7.59;81.34
71175;DHT22;58876;51.994;4.472;2024-03-02T04:20:13;7.59;80.92
71175;DHT22;58876;51.994;4.472;2024-03-02T04:22:39;7.58;81.02
71175;DHT22;58876;51.994;4.472;2024-03-02T04:25:04;7.63;81.02
71175;DHT22;58876;51.994;4.472;2024-03-02T04:27:31;7.65;81.30
71175;DHT22;58876;51.994;4.472;2024-03-02T04:29:58;7.70;80.98
71175;DHT22;58876;51.994;4.472;2024-03-02T04:32:28;7.74;80.94
71175;DHT22;58876;51.994;4.472;2024-03-02T04:34:53;7.73;80.68
71175;DHT22;58876;51.994;4.472;2024-03-02T04:37:20;7.72;80.79
71175;DHT22;58876;51.994;4.472;2024-03-02T04:39:45;7.74;80.82
71175;DHT22;58876;51.994;4.472;2024-03-02T04:42:10;7.80;80.16
71175;DHT22;58876;51.994;4.472;2024-03-02T04:44:36;7.70;80.73
71175;DHT22;58876;51.994;4.472;2024-03-02T04:47:03;7.74;80.54
71175;DHT22;58876;51.994;4.472;2024-03-02T04:49:29;7.79;80.44
71175;DHT22;58876;51.994;4.472;2024-03-02T04:51:55;7.82;80.52
71175;DHT22;58876;51.994;4.472;2024-03-02T04:54:22;7.77;80.49
71175;DHT22;58876;51.994;4.472;2024-03-02T04:56:47;7.83;80.52
71175;DHT22;58876;51.994;4.472;2024-03-02T04:59:16;7.77;80.18
71175;DHT22;58876;51.994;4.472;2024-03-02T05:01:43;7.77;80.24
71175;DHT22;58876;51.994;4.472;2024-03-02T05:04:08;7.70;80.40
71175;DHT22;58876;51.994;4.472;2024-03-02T05:06:40;7.67;80.45
71175;DHT22;58876;51.994;4.472;2024-03-02T05:09:09;7.59;80.53
71175;DHT22;58876;51.994;4.472;2024-03-02T05:11:35;7.51;80.85
71175;DHT22;58876;51.994;4.472;2024-03-02T05:14:06;7.55;80.61
71175;DHT22;58876;51.994;4.472;2024-03-02T05:16:35;7.53;80.70
71175;DHT22;58876;51.994;4.472;2024-03-02T05:19:03;7.55;80.86
71175;DHT22;58876;51.994;4.472;2024-03-02T05:21:32;7.66;80.74
71175;DHT22;58876;51.994;4.472;2024-03-02T05:23:57;7.66;80.53
71175;DHT22;58876;51.994;4.472;2024-03-02T05:26:22;7.70;80.89
71175;DHT22;58876;51.994;4.472;2024-03-02T05:28:48;7.74;80.43
71175;DHT22;58876;51.994;4.472;2024-03-02T05:31:17;7.72;80.48
71175;DHT22;58876;51.994;4.472;2024-03-02T05:33:43;7.67;80.58
71175;DHT22;58876;51.994;4.472;2024-03-02T05:36:09;7.70;80.63
71175;DHT22;58876;51.994;4.472;2024-03-02T05:38:35;7.70;80.36
71175;DHT22;58876;51.994;4.472;2024-03-02T05:41:01;7.67;80.36
71175;DHT22;58876;51.994;4.472;2024-03-02T05:43:26;7.58;80.46
71175;DHT22;58876;51.994;4.472;2024-03-02T05:45:52;7.55;80.78
71175;DHT22;58876;51.994;4.472;2024-03-02T05:48:17;7.63;80.84
71175;DHT22;58876;51.994;4.472;2024-03-02T05:50:43;7.41;80.89
71175;DHT22;58876;51.994;4.472;2024-03-02T05:53:08;7.59;81.24
71175;DHT22;58876;51.994;4.472;2024-03-02T05:55:33;7.72;80.65
71175;DHT22;58876;51.994;4.472;2024-03-02T05:58:00;7.70;80.15
71175;DHT22;58876;51.994;4.472;2024-03-02T06:00:32;7.59;80.86
71175;DHT22;58876;51.994;4.472;2024-03-02T06:02:58;7.69;80.54
71175;DHT22;58876;51.994;4.472;2024-03-02T06:05:24;7.72;79.98
71175;DHT22;58876;51.994;4.472;2024-03-02T06:07:50;7.65;80.02
71175;DHT22;58876;51.994;4.472;2024-03-02T06:10:16;7.67;80.07
71175;DHT22;58876;51.994;4.472;2024-03-02T06:12:42;7.55;80.52
71175;DHT22;58876;51.994;4.472;2024-03-02T06:15:08;7.67;80.33
71175;DHT22;58876;51.994;4.472;2024-03-02T06:17:35;7.66;80.21
71175;DHT22;58876;51.994;4.472;2024-03-02T06:20:01;7.66;79.91
71175;DHT22;58876;51.994;4.472;2024-03-02T06:22:26;7.69;80.14
71175;DHT22;58876;51.994;4.472;2024-03-02T06:24:52;7.79;79.85
71175;DHT22;58876;51.994;4.472;2024-03-02T06:27:17;7.82;79.55
71175;DHT22;58876;51.994;4.472;2024-03-02T06:29:43;7.73;79.60
71175;DHT22;58876;51.994;4.472;2024-03-02T06:32:08;7.72;79.64
71175;DHT22;58876;51.994;4.472;2024-03-02T06:34:34;7.69;79.45
71175;DHT22;58876;51.994;4.472;2024-03-02T06:36:59;7.59;79.85
71175;DHT22;58876;51.994;4.472;2024-03-02T06:39:25;7.53;79.83
71175;DHT22;58876;51.994;4.472;2024-03-02T06:41:51;7.63;79.84
71175;DHT22;58876;51.994;4.472;2024-03-02T06:44:17;7.65;79.85
71175;DHT22;58876;51.994;4.472;2024-03-02T06:46:42;7.59;79.64
71175;DHT22;58876;51.994;4.472;2024-03-02T06:49:08;7.70;79.55
71175;DHT22;58876;51.994;4.472;2024-03-02T06:51:35;7.73;79.43
71175;DHT22;58876;51.994;4.472;2024-03-02T06:54:01;7.66;79.04
71175;DHT22;58876;51.994;4.472;2024-03-02T06:56:26;7.63;79.06
71175;DHT22;58876;51.994;4.472;2024-03-02T06:58:51;7.72;78.77
71175;DHT22;58876;51.994;4.472;2024-03-02T07:01:17;7.67;78.98
71175;DHT22;58876;51.994;4.472;2024-03-02T07:03:42;7.44;79.13
71175;DHT22;58876;51.994;4.472;2024-03-02T07:06:09;7.48;79.49
71175;DHT22;58876;51.994;4.472;2024-03-02T07:08:34;7.36;79.74
71175;DHT22;58876;51.994;4.472;2024-03-02T07:11:00;7.29;79.69
71175;DHT22;58876;51.994;4.472;2024-03-02T07:13:26;7.39;79.79
71175;DHT22;58876;51.994;4.472;2024-03-02T07:15:52;7.52;79.55
71175;DHT22;58876;51.994;4.472;2024-03-02T07:18:36;8.00;78.52
71175;DHT22;58876;51.994;4.472;2024-03-02T07:21:10;8.13;77.74
71175;DHT22;58876;51.994;4.472;2024-03-02T07:23:36;8.11;77.12
71175;DHT22;58876;51.994;4.472;2024-03-02T07:26:01;8.18;77.36
71175;DHT22;58876;51.994;4.472;2024-03-02T07:28:28;8.08;77.19
71175;DHT22;58876;51.994;4.472;2024-03-02T07:31:01;8.35;76.61
71175;DHT22;58876;51.994;4.472;2024-03-02T07:33:27;8.35;76.49
71175;DHT22;58876;51.994;4.472;2024-03-02T07:35:53;8.49;76.02
71175;DHT22;58876;51.994;4.472;2024-03-02T07:38:19;8.55;75.63
71175;DHT22;58876;51.994;4.472;2024-03-02T07:40:45;8.59;75.68
71175;DHT22;58876;51.994;4.472;2024-03-02T07:43:11;8.93;74.70
71175;DHT22;58876;51.994;4.472;2024-03-02T07:45:36;9.35;73.36
71175;DHT22;58876;51.994;4.472;2024-03-02T07:48:02;9.03;73.55
71175;DHT22;58876;51.994;4.472;2024-03-02T07:50:31;9.19;73.81
71175;DHT22;58876;51.994;4.472;2024-03-02T07:52:56;9.95;72.19
71175;DHT22;58876;51.994;4.472;2024-03-02T07:55:21;10.51;69.87
71175;DHT22;58876;51.994;4.472;2024-03-02T07:57:49;10.71;68.79
71175;DHT22;58876;51.994;4.472;2024-03-02T08:00:15;10.51;69.21
71175;DHT22;58876;51.994;4.472;2024-03-02T08:02:41;10.97;68.26
71175;DHT22;58876;51.994;4.472;2024-03-02T08:05:07;10.78;68.12
71175;DHT22;58876;51.994;4.472;2024-03-02T08:07:33;10.80;68.78
71175;DHT22;58876;51.994;4.472;2024-03-02T08:09:59;10.98;68.08
71175;DHT22;58876;51.994;4.472;2024-03-02T08:12:24;11.23;67.61
71175;DHT22;58876;51.994;4.472;2024-03-02T08:14:50;11.05;68.18
71175;DHT22;58876;51.994;4.472;2024-03-02T08:17:15;10.90;68.72
71175;DHT22;58876;51.994;4.472;2024-03-02T08:19:41;10.64;68.76
71175;DHT22;58876;51.994;4.472;2024-03-02T08:22:07;10.20;69.99
71175;DHT22;58876;51.994;4.472;2024-03-02T08:24:32;10.06;70.61
71175;DHT22;58876;51.994;4.472;2024-03-02T08:26:59;9.86;71.73
71175;DHT22;58876;51.994;4.472;2024-03-02T08:29:25;9.41;72.06
71175;DHT22;58876;51.994;4.472;2024-03-02T08:31:50;9.45;73.73
71175;DHT22;58876;51.994;4.472;2024-03-02T08:34:16;9.26;73.51
71175;DHT22;58876;51.994;4.472;2024-03-02T08:36:41;9.04;74.42
71175;DHT22;58876;51.994;4.472;2024-03-02T08:39:08;9.13;74.30
71175;DHT22;58876;51.994;4.472;2024-03-02T08:41:49;9.16;74.60
71175;DHT22;58876;51.994;4.472;2024-03-02T08:44:15;9.31;74.62
71175;DHT22;58876;51.994;4.472;2024-03-02T08:46:41;9.10;74.30
71175;DHT22;58876;51.994;4.472;2024-03-02T08:49:07;9.33;74.34
71175;DHT22;58876;51.994;4.472;2024-03-02T08:51:32;9.23;74.05
71175;DHT22;58876;51.994;4.472;2024-03-02T08:53:59;9.41;73.65
71175;DHT22;58876;51.994;4.472;2024-03-02T08:56:25;9.43;73.87
71175;DHT22;58876;51.994;4.472;2024-03-02T08:58:51;9.51;73.94
71175;DHT22;58876;51.994;4.472;2024-03-02T09:01:18;9.48;73.01
71175;DHT22;58876;51.994;4.472;2024-03-02T09:03:44;9.50;73.24
71175;DHT22;58876;51.994;4.472;2024-03-02T09:06:11;9.58;73.26
71175;DHT22;58876;51.994;4.472;2024-03-02T09:08:36;9.72;72.56
71175;DHT22;58876;51.994;4.472;2024-03-02T09:11:04;9.57;72.03
71175;DHT22;58876;51.994;4.472;2024-03-02T09:13:31;9.50;72.48
71175;DHT22;58876;51.994;4.472;2024-03-02T09:15:57;9.58;72.41
71175;DHT22;58876;51.994;4.472;2024-03-02T09:18:22;9.61;72.45
71175;DHT22;58876;51.994;4.472;2024-03-02T09:20:48;9.67;72.64
71175;DHT22;58876;51.994;4.472;2024-03-02T09:23:14;9.95;72.26
71175;DHT22;58876;51.994;4.472;2024-03-02T09:25:39;9.82;71.13
71175;DHT22;58876;51.994;4.472;2024-03-02T09:28:05;9.88;71.54
71175;DHT22;58876;51.994;4.472;2024-03-02T09:30:30;9.96;71.27
71175;DHT22;58876;51.994;4.472;2024-03-02T09:32:56;10.13;70.32
71175;DHT22;58876;51.994;4.472;2024-03-02T09:35:21;10.06;69.85
71175;DHT22;58876;51.994;4.472;2024-03-02T09:37:47;10.22;70.03
71175;DHT22;58876;51.994;4.472;2024-03-02T09:40:13;10.39;69.19
71175;DHT22;58876;51.994;4.472;2024-03-02T09:42:40;10.54;68.93
71175;DHT22;58876;51.994;4.472;2024-03-02T09:45:06;10.77;69.09
71175;DHT22;58876;51.994;4.472;2024-03-02T09:47:32;11.00;68.51
71175;DHT22;58876;51.994;4.472;2024-03-02T09:49:58;10.94;67.81
71175;DHT22;58876;51.994;4.472;2024-03-02T09:52:23;10.84;67.19
71175;DHT22;58876;51.994;4.472;2024-03-02T09:54:49;10.90;67.33
71175;DHT22;58876;51.994;4.472;2024-03-02T09:57:15;10.82;67.17
71175;DHT22;58876;51.994;4.472;2024-03-02T09:59:41;10.85;67.39
71175;DHT22;58876;51.994;4.472;2024-03-02T10:02:06;10.92;66.77
71175;DHT22;58876;51.994;4.472;2024-03-02T10:04:34;11.00;66.82
71175;DHT22;58876;51.994;4.472;2024-03-02T10:07:12;11.14;66.98
71175;DHT22;58876;51.994;4.472;2024-03-02T10:09:39;11.31;66.07
71175;DHT22;58876;51.994;4.472;2024-03-02T10:12:05;11.16;64.91
71175;DHT22;58876;51.994;4.472;2024-03-02T10:14:32;11.09;65.36
71175;DHT22;58876;51.994;4.472;2024-03-02T10:17:08;11.42;65.56
71175;DHT22;58876;51.994;4.472;2024-03-02T10:19:35;11.60;66.08
71175;DHT22;58876;51.994;4.472;2024-03-02T10:22:04;11.63;64.08
71175;DHT22;58876;51.994;4.472;2024-03-02T10:24:39;11.58;64.63
71175;DHT22;58876;51.994;4.472;2024-03-02T10:27:15;11.71;64.28
71175;DHT22;58876;51.994;4.472;2024-03-02T10:29:41;11.65;63.30
71175;DHT22;58876;51.994;4.472;2024-03-02T10:32:10;11.65;62.96
71175;DHT22;58876;51.994;4.472;2024-03-02T10:34:40;11.46;63.47
71175;DHT22;58876;51.994;4.472;2024-03-02T10:37:06;11.69;63.11
71175;DHT22;58876;51.994;4.472;2024-03-02T10:39:34;11.52;63.39
71175;DHT22;58876;51.994;4.472;2024-03-02T10:42:07;11.62;63.34
71175;DHT22;58876;51.994;4.472;2024-03-02T10:44:33;12.05;64.09
71175;DHT22;58876;51.994;4.472;2024-03-02T10:47:03;12.31;62.93
71175;DHT22;58876;51.994;4.472;2024-03-02T10:49:31;12.32;62.39
71175;DHT22;58876;51.994;4.472;2024-03-02T10:52:00;11.84;61.48
71175;DHT22;58876;51.994;4.472;2024-03-02T10:54:26;11.63;62.35
71175;DHT22;58876;51.994;4.472;2024-03-02T10:56:53;11.52;62.83
71175;DHT22;58876;51.994;4.472;2024-03-02T10:59:33;11.53;62.50
71175;DHT22;58876;51.994;4.472;2024-03-02T11:02:02;11.47;62.68
71175;DHT22;58876;51.994;4.472;2024-03-02T11:04:30;11.44;63.23
71175;DHT22;58876;51.994;4.472;2024-03-02T11:07:09;11.46;62.64
71175;DHT22;58876;51.994;4.472;2024-03-02T11:09:40;11.29;61.71
71175;DHT22;58876;51.994;4.472;2024-03-02T11:12:12;11.56;62.33
71175;DHT22;58876;51.994;4.472;2024-03-02T11:14:42;11.39;62.11
71175;DHT22;58876;51.994;4.472;2024-03-02T11:17:11;11.35;61.64
71175;DHT22;58876;51.994;4.472;2024-03-02T11:19:41;11.50;62.18
71175;DHT22;58876;51.994;4.472;2024-03-02T11:22:08;11.74;61.73
71175;DHT22;58876;51.994;4.472;2024-03-02T11:24:34;11.73;60.80
71175;DHT22;58876;51.994;4.472;2024-03-02T11:27:07;11.77;59.77
71175;DHT22;58876;51.994;4.472;2024-03-02T11:32:15;11.66;60.01
71175;DHT22;58876;51.994;4.472;2024-03-02T11:34:43;11.80;60.71
71175;DHT22;58876;51.994;4.472;2024-03-02T11:37:20;12.07;58.18
71175;DHT22;58876;51.994;4.472;2024-03-02T11:39:49;12.44;57.73
71175;DHT22;58876;51.994;4.472;2024-03-02T11:42:15;12.69;57.17
71175;DHT22;58876;51.994;4.472;2024-03-02T11:44:48;12.92;57.34
71175;DHT22;58876;51.994;4.472;2024-03-02T11:47:16;13.30;57.29
71175;DHT22;58876;51.994;4.472;2024-03-02T11:49:44;13.67;53.90
71175;DHT22;58876;51.994;4.472;2024-03-02T11:52:14;13.47;54.78
71175;DHT22;58876;51.994;4.472;2024-03-02T11:54:42;13.67;55.02
71175;DHT22;58876;51.994;4.472;2024-03-02T11:57:14;13.92;54.30
71175;DHT22;58876;51.994;4.472;2024-03-02T11:59:43;13.76;53.84
71175;DHT22;58876;51.994;4.472;2024-03-02T12:02:16;13.48;53.11
71175;DHT22;58876;51.994;4.472;2024-03-02T12:04:43;13.48;55.31
71175;DHT22;58876;51.994;4.472;2024-03-02T12:07:09;13.59;54.23
71175;DHT22;58876;51.994;4.472;2024-03-02T12:09:34;13.75;55.08
71175;DHT22;58876;51.994;4.472;2024-03-02T12:12:05;13.88;53.25
71175;DHT22;58876;51.994;4.472;2024-03-02T12:14:31;13.57;53.65
71175;DHT22;58876;51.994;4.472;2024-03-02T12:16:57;13.74;53.96
71175;DHT22;58876;51.994;4.472;2024-03-02T12:19:27;13.64;53.91
71175;DHT22;58876;51.994;4.472;2024-03-02T12:21:53;13.67;54.09
71175;DHT22;58876;51.994;4.472;2024-03-02T12:24:21;13.65;55.13
71175;DHT22;58876;51.994;4.472;2024-03-02T12:26:47;14.01;54.22
71175;DHT22;58876;51.994;4.472;2024-03-02T12:29:13;14.04;54.55
71175;DHT22;58876;51.994;4.472;2024-03-02T12:31:40;13.85;54.75
71175;DHT22;58876;51.994;4.472;2024-03-02T12:34:06;13.79;55.41
71175;DHT22;58876;51.994;4.472;2024-03-02T12:36:38;14.04;55.59
71175;DHT22;58876;51.994;4.472;2024-03-02T12:39:04;13.92;53.51
71175;DHT22;58876;51.994;4.472;2024-03-02T12:41:30;13.62;54.54
71175;DHT22;58876;51.994;4.472;2024-03-02T12:43:55;13.65;54.38
71175;DHT22;58876;51.994;4.472;2024-03-02T12:46:21;13.81;53.58
71175;DHT22;58876;51.994;4.472;2024-03-02T12:48:46;13.94;54.04
71175;DHT22;58876;51.994;4.472;2024-03-02T12:51:12;13.98;53.59
71175;DHT22;58876;51.994;4.472;2024-03-02T12:53:38;13.74;54.02
71175;DHT22;58876;51.994;4.472;2024-03-02T12:56:04;13.83;54.14
71175;DHT22;58876;51.994;4.472;2024-03-02T12:58:39;13.81;55.16
71175;DHT22;58876;51.994;4.472;2024-03-02T13:01:06;13.75;53.47
71175;DHT22;58876;51.994;4.472;2024-03-02T13:03:36;13.99;53.10
71175;DHT22;58876;51.994;4.472;2024-03-02T13:06:01;14.09;53.66
71175;DHT22;58876;51.994;4.472;2024-03-02T13:08:27;13.90;53.22
71175;DHT22;58876;51.994;4.472;2024-03-02T13:10:52;14.01;53.44
71175;DHT22;58876;51.994;4.472;2024-03-02T13:13:18;13.88;54.55
71175;DHT22;58876;51.994;4.472;2024-03-02T13:15:44;13.79;54.32
71175;DHT22;58876;51.994;4.472;2024-03-02T13:18:11;13.88;54.47
71175;DHT22;58876;51.994;4.472;2024-03-02T13:20:37;13.95;53.84
71175;DHT22;58876;51.994;4.472;2024-03-02T13:23:04;13.90;54.69
71175;DHT22;58876;51.994;4.472;2024-03-02T13:25:29;13.78;55.42
71175;DHT22;58876;51.994;4.472;2024-03-02T13:27:57;13.94;54.86
71175;DHT22;58876;51.994;4.472;2024-03-02T13:30:22;13.95;54.74
71175;DHT22;58876;51.994;4.472;2024-03-02T13:32:48;13.74;54.11
71175;DHT22;58876;51.994;4.472;2024-03-02T13:35:13;13.90;54.07
71175;DHT22;58876;51.994;4.472;2024-03-02T13:37:38;14.15;53.93
71175;DHT22;58876;51.994;4.472;2024-03-02T13:40:04;14.19;53.39
71175;DHT22;58876;51.994;4.472;2024-03-02T13:42:30;14.20;54.54
71175;DHT22;58876;51.994;4.472;2024-03-02T13:44:56;14.44;54.04
71175;DHT22;58876;51.994;4.472;2024-03-02T13:47:21;14.37;53.95
71175;DHT22;58876;51.994;4.472;2024-03-02T13:49:47;14.06;54.37
71175;DHT22;58876;51.994;4.472;2024-03-02T13:52:15;14.36;55.65
71175;DHT22;58876;51.994;4.472;2024-03-02T13:54:43;14.23;53.57
71175;DHT22;58876;51.994;4.472;2024-03-02T13:57:09;14.43;54.90
71175;DHT22;58876;51.994;4.472;2024-03-02T13:59:35;14.57;54.44
71175;DHT22;58876;51.994;4.472;2024-03-02T14:02:02;14.33;54.49
71175;DHT22;58876;51.994;4.472;2024-03-02T14:04:32;14.12;55.15
71175;DHT22;58876;51.994;4.472;2024-03-02T14:06:59;14.13;55.25
71175;DHT22;58876;51.994;4.472;2024-03-02T14:09:24;14.01;55.23
71175;DHT22;58876;51.994;4.472;2024-03-02T14:11:50;14.01;55.26
71175;DHT22;58876;51.994;4.472;2024-03-02T14:14:17;14.06;56.53
71175;DHT22;58876;51.994;4.472;2024-03-02T14:16:43;13.95;55.65
71175;DHT22;58876;51.994;4.472;2024-03-02T14:19:08;14.32;54.85
71175;DHT22;58876;51.994;4.472;2024-03-02T14:21:35;14.61;55.40
71175;DHT22;58876;51.994;4.472;2024-03-02T14:24:01;14.92;54.16
71175;DHT22;58876;51.994;4.472;2024-03-02T14:26:27;14.61;54.21
71175;DHT22;58876;51.994;4.472;2024-03-02T14:28:54;14.30;54.65
71175;DHT22;58876;51.994;4.472;2024-03-02T14:31:19;14.59;55.13
71175;DHT22;58876;51.994;4.472;2024-03-02T14:33:45;14.78;54.43
71175;DHT22;58876;51.994;4.472;2024-03-02T14:36:11;14.84;53.63
71175;DHT22;58876;51.994;4.472;2024-03-02T14:38:37;14.81;54.42
71175;DHT22;58876;51.994;4.472;2024-03-02T14:41:03;14.77;54.55
71175;DHT22;58876;51.994;4.472;2024-03-02T14:43:29;14.65;53.70
71175;DHT22;58876;51.994;4.472;2024-03-02T14:45:55;14.38;54.18
71175;DHT22;58876;51.994;4.472;2024-03-02T14:48:21;14.38;54.67
71175;DHT22;58876;51.994;4.472;2024-03-02T14:50:47;14.34;53.81
71175;DHT22;58876;51.994;4.472;2024-03-02T14:53:13;14.25;55.41
71175;DHT22;58876;51.994;4.472;2024-03-02T14:55:39;14.23;55.17
71175;DHT22;58876;51.994;4.472;2024-03-02T14:58:04;14.08;54.22
71175;DHT22;58876;51.994;4.472;2024-03-02T15:00:30;14.08;56.47
71175;DHT22;58876;51.994;4.472;2024-03-02T15:02:55;13.94;55.10
71175;DHT22;58876;51.994;4.472;2024-03-02T15:05:21;13.95;55.68
71175;DHT22;58876;51.994;4.472;2024-03-02T15:07:46;13.99;56.23
71175;DHT22;58876;51.994;4.472;2024-03-02T15:10:12;14.12;55.81
71175;DHT22;58876;51.994;4.472;2024-03-02T15:12:37;14.15;55.89
71175;DHT22;58876;51.994;4.472;2024-03-02T15:15:03;14.15;55.13
71175;DHT22;58876;51.994;4.472;2024-03-02T15:17:29;14.13;55.61
71175;DHT22;58876;51.994;4.472;2024-03-02T15:19:55;14.20;55.03
71175;DHT22;58876;51.994;4.472;2024-03-02T15:22:20;14.17;54.90
71175;DHT22;58876;51.994;4.472;2024-03-02T15:24:46;14.33;55.64
71175;DHT22;58876;51.994;4.472;2024-03-02T15:27:11;14.41;56.13
71175;DHT22;58876;51.994;4.472;2024-03-02T15:29:37;14.56;55.05
71175;DHT22;58876;51.994;4.472;2024-03-02T15:32:03;14.63;54.04
71175;DHT22;58876;51.994;4.472;2024-03-02T15:34:31;14.71;54.52
71175;DHT22;58876;51.994;4.472;2024-03-02T15:36:57;14.57;54.17
71175;DHT22;58876;51.994;4.472;2024-03-02T15:39:23;14.43;55.16
71175;DHT22;58876;51.994;4.472;2024-03-02T15:41:48;14.32;55.04
71175;DHT22;58876;51.994;4.472;2024-03-02T15:44:14;14.20;55.39
71175;DHT22;58876;51.994;4.472;2024-03-02T15:46:39;14.16;56.22